createdAt,value
2023-02-24T03:07:31.942Z,100.00
2023-02-24T03:26:23.349Z,100.00
2023-02-24T04:28:11.126Z,100.00
2023-02-24T04:38:37.289Z,100.00
2023-02-24T04:41:04.636Z,100.00
2023-02-24T04:46:08.135Z,100.00
2023-02-24T04:48:35.457Z,100.00
2023-02-24T07:22:16.942Z,88.84
2023-02-24T07:24:46.566Z,88.47
2023-02-24T07:27:22.190Z,88.42
2023-02-24T07:29:51.833Z,87.52
2023-02-24T07:32:22.472Z,88.19
2023-02-24T07:34:49.246Z,87.68
2023-02-24T07:37:16.721Z,87.79
2023-02-24T07:39:43.299Z,87.89
2023-02-24T07:58:10.589Z,85.92
2023-02-24T08:32:57.036Z,88.06
2023-02-24T08:35:32.053Z,87.99
2023-02-24T08:38:07.767Z,88.38
2023-02-24T08:40:51.643Z,88.09
2023-02-24T08:43:31.108Z,89.09
2023-02-24T08:56:35.012Z,89.39
2023-02-24T08:59:06.197Z,89.84
2023-02-24T09:01:40.280Z,89.32
2023-02-24T09:04:09.957Z,89.81
2023-02-24T09:25:54.686Z,92.89
2023-02-24T09:28:33.051Z,93.36
2023-02-24T09:31:04.936Z,93.64
2023-02-24T09:33:39.511Z,94.68
2023-02-24T09:36:57.324Z,95.02
2023-02-24T09:39:24.120Z,95.16
2023-02-24T09:52:41.331Z,96.44
2023-02-24T09:58:17.260Z,96.47
2023-02-24T10:01:21.124Z,96.85
2023-02-24T10:04:18.648Z,97.07
2023-02-24T10:07:05.265Z,97.51
2023-02-24T10:09:41.342Z,97.34
2023-02-24T10:12:21.744Z,96.98
2023-02-24T10:14:51.487Z,97.77
2023-02-24T10:17:39.921Z,97.45
2023-02-24T10:22:57.823Z,98.15
2023-02-24T10:25:24.223Z,98.28
2023-02-24T10:28:12.840Z,98.12
2023-02-24T10:41:50.439Z,99.32
2023-02-24T10:47:13.705Z,99.27
2023-02-24T10:49:57.560Z,98.88
2023-02-24T10:52:50.353Z,98.99
2023-02-24T11:01:13.289Z,99.33
2023-02-24T11:09:22.509Z,98.56
2023-02-24T11:17:29.185Z,99.24
2023-02-24T11:20:15.748Z,99.86
2023-02-24T11:22:45.751Z,99.41
2023-02-24T11:25:36.326Z,100.00
2023-02-24T11:28:05.254Z,99.47
2023-02-24T11:33:22.173Z,99.69
2023-02-24T11:36:38.914Z,99.18
2023-02-24T12:08:52.803Z,100.00
2023-02-24T12:11:40.968Z,100.00
2023-02-24T12:14:27.579Z,100.00
2023-02-24T12:19:49.251Z,100.00
2023-02-24T12:27:52.406Z,100.00
2023-02-24T12:38:58.701Z,100.00
2023-02-24T12:44:37.929Z,100.00
2023-02-24T12:47:47.690Z,100.00
2023-02-24T12:50:19.559Z,100.00
2023-02-24T12:57:26.853Z,100.00
2023-02-24T13:13:52.056Z,96.91
2023-02-24T13:35:34.032Z,92.65
2023-02-24T13:40:43.542Z,95.01
2023-02-24T14:04:57.881Z,93.39
2023-02-24T14:07:31.717Z,93.72
2023-02-24T14:10:02.335Z,93.29
2023-02-24T14:12:32.230Z,92.30
2023-02-24T14:25:39.795Z,93.89
2023-02-24T14:49:40.019Z,100.00
2023-02-24T15:00:46.117Z,100.00
2023-02-24T15:03:25.365Z,100.00
2023-02-24T15:05:55.640Z,100.00
2023-02-24T15:14:28.273Z,100.00
2023-02-24T15:25:44.721Z,81.85
2023-02-24T15:33:34.149Z,82.94
2023-02-24T15:36:00.761Z,85.97
2023-02-24T15:38:37.225Z,87.49
2023-02-24T15:41:07.496Z,90.16
2023-02-24T15:43:37.134Z,91.61
2023-02-24T15:46:18.753Z,91.70
2023-02-24T15:51:41.126Z,93.71
2023-02-24T15:54:31.553Z,95.01
2023-02-24T15:56:59.464Z,95.82
2023-02-24T15:59:26.133Z,96.28
2023-02-24T16:23:22.734Z,92.66
2023-02-24T16:36:35.780Z,93.52
2023-02-24T16:39:02.393Z,92.00
2023-02-24T16:41:30.964Z,93.53
2023-02-24T16:43:57.470Z,95.37
2023-02-24T16:48:58.232Z,97.90
2023-02-24T16:53:59.923Z,99.21
2023-02-24T16:56:26.505Z,98.90
2023-02-24T17:01:28.199Z,98.91
2023-02-24T17:03:54.808Z,98.62
2023-02-24T17:06:22.499Z,99.46
2023-02-24T17:08:53.200Z,98.83
2023-02-24T17:11:21.117Z,98.73
2023-02-24T17:13:56.716Z,99.05
2023-02-24T17:16:23.797Z,99.48
2023-02-24T17:18:50.860Z,100.00
2023-02-24T17:21:18.044Z,99.40
2023-02-24T17:23:44.770Z,98.65
2023-02-24T17:26:15.244Z,99.60
2023-02-24T17:28:42.020Z,99.57
2023-02-24T17:31:08.746Z,99.58
2023-02-24T17:33:35.302Z,99.43
2023-02-24T17:36:01.739Z,98.67
2023-02-24T17:38:28.668Z,98.59
2023-02-24T17:43:53.809Z,99.06
2023-02-24T17:46:23.604Z,99.63
2023-02-24T17:48:50.224Z,99.54
2023-02-24T17:51:20.295Z,99.69
2023-02-24T17:53:46.768Z,99.92
2023-02-24T17:56:13.687Z,99.91
2023-02-24T17:58:42.965Z,99.56
2023-02-24T18:01:11.381Z,99.11
2023-02-24T18:03:38.165Z,99.12
2023-02-24T18:06:10.891Z,100.00
2023-02-24T18:08:39.286Z,99.33
2023-02-24T18:11:15.304Z,100.00
2023-02-24T18:14:16.479Z,99.68
2023-02-24T18:16:47.727Z,99.79
2023-02-24T18:19:14.565Z,100.00
2023-02-24T18:21:50.196Z,99.57
2023-02-24T18:24:16.974Z,100.00
2023-02-24T18:30:54.477Z,100.00
2023-02-24T18:33:21.150Z,100.00
2023-02-24T18:35:47.745Z,100.00
2023-02-24T18:38:14.234Z,100.00
2023-02-24T18:40:40.757Z,100.00
2023-02-24T18:43:07.266Z,100.00
2023-02-24T18:45:33.793Z,99.83
2023-02-24T18:48:04.937Z,99.92
2023-02-24T18:50:32.694Z,98.74
2023-02-24T18:53:00.542Z,98.34
2023-02-24T18:55:27.122Z,98.55
2023-02-24T18:57:54.289Z,98.06
2023-02-24T19:00:21.181Z,98.72
2023-02-24T19:02:47.759Z,97.72
2023-02-24T19:05:14.382Z,97.78
2023-02-24T19:07:40.913Z,97.17
2023-02-24T19:10:07.964Z,96.13
2023-02-24T19:12:35.844Z,96.14
2023-02-24T19:15:02.595Z,95.67
2023-02-24T19:17:29.126Z,95.67
2023-02-24T19:19:55.904Z,95.44
2023-02-24T19:22:22.550Z,95.16
2023-02-24T19:24:51.737Z,95.77
2023-02-24T19:27:19.071Z,96.15
2023-02-24T19:29:45.576Z,96.27
2023-02-24T19:32:12.298Z,96.19
2023-02-24T19:34:38.913Z,95.46
2023-02-24T19:37:06.003Z,95.30
2023-02-24T19:39:33.779Z,94.30
2023-02-24T19:42:00.265Z,94.08
2023-02-24T19:44:26.883Z,93.55
2023-02-24T19:46:53.615Z,93.77
2023-02-24T19:49:20.056Z,93.35
2023-02-24T19:51:48.227Z,93.11
2023-02-24T19:54:16.019Z,92.59
2023-02-24T19:56:42.613Z,92.59
2023-02-24T19:59:10.827Z,93.25
2023-02-24T20:01:37.425Z,92.02
2023-02-24T20:04:05.074Z,91.98
2023-02-24T20:06:35.648Z,91.97
2023-02-24T20:09:08.601Z,91.91
2023-02-24T20:11:37.438Z,90.86
2023-02-24T20:14:06.929Z,90.94
2023-02-24T20:16:34.882Z,89.82
2023-02-24T20:19:01.832Z,90.18
2023-02-24T20:21:29.038Z,89.41
2023-02-24T20:24:02.622Z,90.36
2023-02-24T20:26:30.175Z,89.49
2023-02-24T20:28:57.016Z,89.43
2023-02-24T20:31:24.078Z,89.30
2023-02-24T20:33:51.218Z,89.42
2023-02-24T20:36:28.613Z,89.45
2023-02-24T20:38:57.747Z,90.30
2023-02-24T20:41:24.677Z,90.01
2023-02-24T20:43:51.151Z,91.29
2023-02-24T20:46:25.377Z,91.80
2023-02-24T20:48:55.654Z,92.35
2023-02-24T20:51:23.220Z,92.87
2023-02-24T20:53:57.384Z,92.60
2023-02-24T20:56:26.367Z,92.25
2023-02-24T20:59:04.316Z,92.79
2023-02-24T21:01:31.918Z,92.83
2023-02-24T21:03:58.729Z,93.27
2023-02-24T21:06:26.145Z,92.82
2023-02-24T21:08:55.612Z,93.27
2023-02-24T21:11:22.742Z,93.07
2023-02-24T21:13:50.518Z,93.53
2023-02-24T21:16:18.586Z,93.75
2023-02-24T21:18:47.036Z,94.22
2023-02-24T21:21:15.302Z,94.33
2023-02-24T21:23:43.722Z,93.23
2023-02-24T21:26:11.429Z,92.85
2023-02-24T21:28:40.371Z,92.87
2023-02-24T21:31:12.228Z,92.26
2023-02-24T21:33:39.340Z,92.44
2023-02-24T21:36:13.391Z,91.59
2023-02-24T21:38:41.254Z,91.06
2023-02-24T21:41:12.927Z,90.46
2023-02-24T21:43:39.355Z,90.63
2023-02-24T21:46:08.979Z,90.37
2023-02-24T21:48:37.095Z,91.93
2023-02-24T21:51:06.064Z,91.45
2023-02-24T21:53:35.504Z,92.20
2023-02-24T21:56:11.250Z,91.31
2023-02-24T21:58:39.252Z,91.19
2023-02-24T22:01:11.349Z,91.04
2023-02-24T22:03:37.941Z,89.97
2023-02-24T22:06:05.291Z,90.30
2023-02-24T22:08:31.849Z,90.59
2023-02-24T22:10:59.969Z,90.57
2023-02-24T22:13:27.343Z,89.96
2023-02-24T22:15:55.901Z,89.83
2023-02-24T22:18:22.407Z,89.04
2023-02-24T22:20:48.801Z,88.30
2023-02-24T22:23:15.377Z,88.33
2023-02-24T22:25:41.840Z,88.55
2023-02-24T22:28:08.339Z,88.11
2023-02-24T22:30:34.823Z,88.04
2023-02-24T22:33:01.308Z,89.06
2023-02-24T22:35:27.781Z,88.92
2023-02-24T22:37:56.746Z,88.16
2023-02-24T22:40:23.375Z,88.42
2023-02-24T22:42:49.769Z,89.17
2023-02-24T22:45:16.462Z,88.18
2023-02-24T22:47:42.992Z,87.08
2023-02-24T22:50:10.561Z,87.74
2023-02-24T22:52:36.984Z,87.94
2023-02-24T22:55:03.534Z,88.96
2023-02-24T22:57:32.683Z,88.92
2023-02-24T22:59:59.167Z,89.64
2023-02-24T23:02:27.335Z,89.84
2023-02-24T23:04:53.795Z,89.99
2023-02-24T23:07:20.234Z,89.94
2023-02-24T23:09:52.762Z,89.88
2023-02-24T23:12:20.667Z,90.57
2023-02-24T23:14:47.075Z,90.71
2023-02-24T23:17:13.504Z,91.14
2023-02-24T23:19:39.967Z,90.10
2023-02-24T23:22:07.966Z,89.93
2023-02-24T23:24:34.482Z,90.23
2023-02-24T23:27:00.909Z,90.00
2023-02-24T23:29:27.571Z,89.48
2023-02-24T23:31:54.301Z,90.23
2023-02-24T23:34:20.981Z,89.23
2023-02-24T23:36:47.835Z,88.77
2023-02-24T23:39:18.232Z,88.86
2023-02-24T23:41:44.815Z,88.85
2023-02-24T23:44:12.595Z,89.85
2023-02-24T23:46:39.095Z,89.93
2023-02-24T23:49:05.665Z,88.45
2023-02-24T23:51:47.145Z,89.44
2023-02-24T23:54:14.616Z,88.30
2023-02-24T23:56:41.224Z,88.99
2023-02-24T23:59:07.691Z,88.65
